Jask, Iran
Current Conditions -  °F | °C
As of 9:00 AM on Saturday 25 Oct 2014 (Local Time) from OIZJ Reporting Station
Clear Clear  
Wind Chill: 86°   Ceiling: Unl
Heat Index: 93°   Visibility: 6mi
Dew Point: 73°   Wind: 9mph
Humidity: 66%   Direction: 100°E
Pressure: 29.88"   Gusts: NA
Location:  25.65°N, 57.78°E
Report Text: OIZJ 250600Z 10008KT CAVOK 30/23 Q1012
Loading
Personal Weather Stations






























Interactive Weather Map New forecast layout! Learn more

10-Day Weather Forecast

Advertisements
Track Severe Weather on mobile